sensor_id;sensor_type;location;lat;lon;timestamp;P1;durP1;ratioP1;P2;durP2;ratioP2
71814;SDS011;59659;41.520;23.794;2022-10-30T00:00:38;16.55;;;6.47;;
71814;SDS011;59659;41.520;23.794;2022-10-30T00:01:50;19.65;;;6.32;;
71814;SDS011;59659;41.520;23.794;2022-10-30T00:03:02;16.92;;;6.28;;
71814;SDS011;59659;41.520;23.794;2022-10-30T00:04:14;11.00;;;5.20;;
71814;SDS011;59659;41.520;23.794;2022-10-30T00:05:26;6.43;;;3.47;;
71814;SDS011;59659;41.520;23.794;2022-10-30T00:06:37;8.73;;;4.00;;
71814;SDS011;59659;41.520;23.794;2022-10-30T00:07:49;11.35;;;4.75;;
71814;SDS011;59659;41.520;23.794;2022-10-30T00:09:00;8.88;;;4.05;;
71814;SDS011;59659;41.520;23.794;2022-10-30T00:10:12;7.35;;;2.80;;
71814;SDS011;59659;41.520;23.794;2022-10-30T00:11:24;7.85;;;3.45;;
71814;SDS011;59659;41.520;23.794;2022-10-30T00:12:36;4.90;;;2.90;;
71814;SDS011;59659;41.520;23.794;2022-10-30T00:13:47;7.10;;;2.40;;
71814;SDS011;59659;41.520;23.794;2022-10-30T00:14:59;4.20;;;2.13;;
71814;SDS011;59659;41.520;23.794;2022-10-30T00:16:10;2.55;;;1.65;;
71814;SDS011;59659;41.520;23.794;2022-10-30T00:17:22;3.28;;;1.63;;
71814;SDS011;59659;41.520;23.794;2022-10-30T00:18:34;3.03;;;1.70;;
71814;SDS011;59659;41.520;23.794;2022-10-30T00:19:46;3.53;;;1.92;;
71814;SDS011;59659;41.520;23.794;2022-10-30T00:21:02;3.83;;;1.90;;
71814;SDS011;59659;41.520;23.794;2022-10-30T00:22:14;3.40;;;1.92;;
71814;SDS011;59659;41.520;23.794;2022-10-30T00:23:25;7.65;;;2.05;;
71814;SDS011;59659;41.520;23.794;2022-10-30T00:24:37;3.40;;;1.70;;
71814;SDS011;59659;41.520;23.794;2022-10-30T00:25:48;3.92;;;1.58;;
71814;SDS011;59659;41.520;23.794;2022-10-30T00:27:00;3.22;;;1.88;;
71814;SDS011;59659;41.520;23.794;2022-10-30T00:28:11;2.28;;;1.48;;
71814;SDS011;59659;41.520;23.794;2022-10-30T00:29:22;4.32;;;1.88;;
71814;SDS011;59659;41.520;23.794;2022-10-30T00:30:36;4.15;;;2.30;;
71814;SDS011;59659;41.520;23.794;2022-10-30T00:31:48;1.88;;;1.27;;
71814;SDS011;59659;41.520;23.794;2022-10-30T00:32:59;2.88;;;1.55;;
71814;SDS011;59659;41.520;23.794;2022-10-30T00:34:11;4.03;;;2.10;;
71814;SDS011;59659;41.520;23.794;2022-10-30T00:35:23;4.57;;;1.95;;
71814;SDS011;59659;41.520;23.794;2022-10-30T00:36:34;4.55;;;2.00;;
71814;SDS011;59659;41.520;23.794;2022-10-30T00:37:46;4.30;;;1.88;;
71814;SDS011;59659;41.520;23.794;2022-10-30T00:38:57;4.57;;;2.00;;
71814;SDS011;59659;41.520;23.794;2022-10-30T00:40:13;3.08;;;2.08;;
71814;SDS011;59659;41.520;23.794;2022-10-30T00:41:24;4.47;;;2.78;;
71814;SDS011;59659;41.520;23.794;2022-10-30T00:42:36;3.10;;;2.08;;
71814;SDS011;59659;41.520;23.794;2022-10-30T00:43:47;4.85;;;2.53;;
71814;SDS011;59659;41.520;23.794;2022-10-30T00:44:59;4.40;;;2.50;;
71814;SDS011;59659;41.520;23.794;2022-10-30T00:46:23;3.03;;;2.28;;
71814;SDS011;59659;41.520;23.794;2022-10-30T00:47:37;3.13;;;1.95;;
71814;SDS011;59659;41.520;23.794;2022-10-30T00:48:57;3.00;;;1.85;;
71814;SDS011;59659;41.520;23.794;2022-10-30T00:51:39;3.15;;;1.73;;
71814;SDS011;59659;41.520;23.794;2022-10-30T00:53:11;3.00;;;1.52;;
71814;SDS011;59659;41.520;23.794;2022-10-30T00:54:23;3.55;;;1.73;;
71814;SDS011;59659;41.520;23.794;2022-10-30T00:55:36;5.47;;;2.75;;
71814;SDS011;59659;41.520;23.794;2022-10-30T00:56:49;4.43;;;2.45;;
71814;SDS011;59659;41.520;23.794;2022-10-30T00:58:01;3.95;;;1.90;;
71814;SDS011;59659;41.520;23.794;2022-10-30T00:59:18;3.60;;;2.55;;
71814;SDS011;59659;41.520;23.794;2022-10-30T01:00:31;4.30;;;2.38;;
71814;SDS011;59659;41.520;23.794;2022-10-30T01:01:43;3.47;;;2.42;;
71814;SDS011;59659;41.520;23.794;2022-10-30T01:02:55;5.40;;;2.40;;
71814;SDS011;59659;41.520;23.794;2022-10-30T01:04:08;3.67;;;2.30;;
71814;SDS011;59659;41.520;23.794;2022-10-30T01:05:20;5.22;;;2.25;;
71814;SDS011;59659;41.520;23.794;2022-10-30T01:06:34;6.53;;;2.65;;
71814;SDS011;59659;41.520;23.794;2022-10-30T01:07:46;5.38;;;2.30;;
71814;SDS011;59659;41.520;23.794;2022-10-30T01:08:58;5.10;;;2.13;;
71814;SDS011;59659;41.520;23.794;2022-10-30T01:10:11;4.47;;;1.95;;
71814;SDS011;59659;41.520;23.794;2022-10-30T01:11:22;3.40;;;2.28;;
71814;SDS011;59659;41.520;23.794;2022-10-30T01:12:34;3.25;;;1.90;;
71814;SDS011;59659;41.520;23.794;2022-10-30T01:13:46;3.78;;;2.08;;
71814;SDS011;59659;41.520;23.794;2022-10-30T01:14:58;5.63;;;2.78;;
71814;SDS011;59659;41.520;23.794;2022-10-30T01:31:27;2.85;;;2.15;;
71814;SDS011;59659;41.520;23.794;2022-10-30T01:35:20;3.70;;;2.00;;
71814;SDS011;59659;41.520;23.794;2022-10-30T01:36:40;3.40;;;2.38;;
71814;SDS011;59659;41.520;23.794;2022-10-30T01:37:55;2.80;;;2.03;;
71814;SDS011;59659;41.520;23.794;2022-10-30T01:39:15;3.60;;;2.80;;
71814;SDS011;59659;41.520;23.794;2022-10-30T01:40:28;2.50;;;1.75;;
71814;SDS011;59659;41.520;23.794;2022-10-30T01:41:39;3.63;;;2.30;;
71814;SDS011;59659;41.520;23.794;2022-10-30T01:42:57;3.42;;;1.88;;
71814;SDS011;59659;41.520;23.794;2022-10-30T01:44:11;5.32;;;2.15;;
71814;SDS011;59659;41.520;23.794;2022-10-30T01:50:56;5.30;;;2.55;;
71814;SDS011;59659;41.520;23.794;2022-10-30T01:52:16;3.92;;;2.33;;
71814;SDS011;59659;41.520;23.794;2022-10-30T01:53:35;1.90;;;1.60;;
71814;SDS011;59659;41.520;23.794;2022-10-30T01:54:58;3.10;;;2.28;;
71814;SDS011;59659;41.520;23.794;2022-10-30T01:57:40;3.08;;;1.63;;
71814;SDS011;59659;41.520;23.794;2022-10-30T02:00:14;3.90;;;2.30;;
71814;SDS011;59659;41.520;23.794;2022-10-30T02:01:26;3.35;;;2.05;;
71814;SDS011;59659;41.520;23.794;2022-10-30T02:02:39;5.63;;;2.60;;
71814;SDS011;59659;41.520;23.794;2022-10-30T02:03:50;2.70;;;1.90;;
71814;SDS011;59659;41.520;23.794;2022-10-30T02:05:05;2.45;;;1.45;;
71814;SDS011;59659;41.520;23.794;2022-10-30T02:06:17;3.78;;;2.30;;
71814;SDS011;59659;41.520;23.794;2022-10-30T02:07:28;3.63;;;2.42;;
71814;SDS011;59659;41.520;23.794;2022-10-30T02:08:39;3.05;;;2.10;;
71814;SDS011;59659;41.520;23.794;2022-10-30T02:09:51;4.28;;;2.28;;
71814;SDS011;59659;41.520;23.794;2022-10-30T02:11:03;5.25;;;2.67;;
71814;SDS011;59659;41.520;23.794;2022-10-30T02:12:15;4.15;;;2.65;;
71814;SDS011;59659;41.520;23.794;2022-10-30T02:13:27;6.93;;;2.63;;
71814;SDS011;59659;41.520;23.794;2022-10-30T02:14:40;4.07;;;2.00;;
71814;SDS011;59659;41.520;23.794;2022-10-30T02:15:53;5.07;;;2.55;;
71814;SDS011;59659;41.520;23.794;2022-10-30T02:17:04;4.95;;;2.85;;
71814;SDS011;59659;41.520;23.794;2022-10-30T02:18:17;6.97;;;2.95;;
71814;SDS011;59659;41.520;23.794;2022-10-30T02:19:28;5.15;;;2.25;;
71814;SDS011;59659;41.520;23.794;2022-10-30T02:20:40;5.93;;;2.97;;
71814;SDS011;59659;41.520;23.794;2022-10-30T02:21:51;3.58;;;2.20;;
71814;SDS011;59659;41.520;23.794;2022-10-30T02:23:03;6.22;;;2.33;;
71814;SDS011;59659;41.520;23.794;2022-10-30T02:24:15;6.82;;;2.80;;
71814;SDS011;59659;41.520;23.794;2022-10-30T02:25:27;6.20;;;2.70;;
71814;SDS011;59659;41.520;23.794;2022-10-30T02:26:38;4.55;;;1.77;;
71814;SDS011;59659;41.520;23.794;2022-10-30T02:27:49;6.65;;;2.40;;
71814;SDS011;59659;41.520;23.794;2022-10-30T02:29:01;3.78;;;2.28;;
71814;SDS011;59659;41.520;23.794;2022-10-30T02:30:12;8.38;;;3.15;;
71814;SDS011;59659;41.520;23.794;2022-10-30T02:31:24;8.65;;;3.50;;
71814;SDS011;59659;41.520;23.794;2022-10-30T02:32:35;6.20;;;4.10;;
71814;SDS011;59659;41.520;23.794;2022-10-30T02:33:47;9.88;;;5.07;;
71814;SDS011;59659;41.520;23.794;2022-10-30T02:34:58;17.65;;;4.40;;
71814;SDS011;59659;41.520;23.794;2022-10-30T02:36:10;8.45;;;4.55;;
71814;SDS011;59659;41.520;23.794;2022-10-30T02:37:21;9.88;;;4.55;;
71814;SDS011;59659;41.520;23.794;2022-10-30T02:38:34;12.60;;;5.03;;
71814;SDS011;59659;41.520;23.794;2022-10-30T02:39:45;11.18;;;5.80;;
71814;SDS011;59659;41.520;23.794;2022-10-30T02:40:57;12.70;;;4.63;;
71814;SDS011;59659;41.520;23.794;2022-10-30T02:42:09;13.18;;;5.07;;
71814;SDS011;59659;41.520;23.794;2022-10-30T02:43:20;7.15;;;4.80;;
71814;SDS011;59659;41.520;23.794;2022-10-30T02:44:31;9.60;;;4.65;;
71814;SDS011;59659;41.520;23.794;2022-10-30T02:45:43;7.90;;;3.80;;
71814;SDS011;59659;41.520;23.794;2022-10-30T02:46:54;8.15;;;4.25;;
71814;SDS011;59659;41.520;23.794;2022-10-30T02:48:06;8.75;;;4.50;;
71814;SDS011;59659;41.520;23.794;2022-10-30T02:49:17;5.75;;;3.70;;
71814;SDS011;59659;41.520;23.794;2022-10-30T02:50:29;9.60;;;4.90;;
71814;SDS011;59659;41.520;23.794;2022-10-30T02:51:40;11.30;;;5.25;;
71814;SDS011;59659;41.520;23.794;2022-10-30T02:52:52;12.63;;;5.30;;
71814;SDS011;59659;41.520;23.794;2022-10-30T02:54:03;10.15;;;6.43;;
71814;SDS011;59659;41.520;23.794;2022-10-30T02:55:15;9.13;;;5.28;;
71814;SDS011;59659;41.520;23.794;2022-10-30T02:56:26;12.18;;;6.05;;
71814;SDS011;59659;41.520;23.794;2022-10-30T02:57:38;16.20;;;6.75;;
71814;SDS011;59659;41.520;23.794;2022-10-30T02:58:49;14.75;;;5.95;;
71814;SDS011;59659;41.520;23.794;2022-10-30T03:00:00;17.00;;;6.60;;
71814;SDS011;59659;41.520;23.794;2022-10-30T03:01:16;15.25;;;6.35;;
71814;SDS011;59659;41.520;23.794;2022-10-30T03:02:28;19.60;;;7.30;;
71814;SDS011;59659;41.520;23.794;2022-10-30T03:03:40;15.90;;;6.55;;
71814;SDS011;59659;41.520;23.794;2022-10-30T03:04:52;10.20;;;5.15;;
71814;SDS011;59659;41.520;23.794;2022-10-30T03:06:04;9.82;;;4.03;;
71814;SDS011;59659;41.520;23.794;2022-10-30T03:07:16;8.80;;;4.15;;
71814;SDS011;59659;41.520;23.794;2022-10-30T03:08:28;8.35;;;3.03;;
71814;SDS011;59659;41.520;23.794;2022-10-30T03:09:40;8.98;;;3.70;;
71814;SDS011;59659;41.520;23.794;2022-10-30T03:10:51;8.15;;;4.82;;
71814;SDS011;59659;41.520;23.794;2022-10-30T03:12:03;7.07;;;3.92;;
71814;SDS011;59659;41.520;23.794;2022-10-30T03:13:14;8.63;;;3.88;;
71814;SDS011;59659;41.520;23.794;2022-10-30T03:14:26;8.65;;;4.18;;
71814;SDS011;59659;41.520;23.794;2022-10-30T03:15:37;10.90;;;4.88;;
71814;SDS011;59659;41.520;23.794;2022-10-30T03:16:48;7.85;;;3.80;;
71814;SDS011;59659;41.520;23.794;2022-10-30T03:18:02;10.95;;;4.25;;
71814;SDS011;59659;41.520;23.794;2022-10-30T03:19:14;6.22;;;3.70;;
71814;SDS011;59659;41.520;23.794;2022-10-30T03:20:25;6.78;;;3.08;;
71814;SDS011;59659;41.520;23.794;2022-10-30T03:21:37;5.55;;;2.95;;
71814;SDS011;59659;41.520;23.794;2022-10-30T03:22:48;6.80;;;3.15;;
71814;SDS011;59659;41.520;23.794;2022-10-30T03:24:00;8.65;;;4.00;;
71814;SDS011;59659;41.520;23.794;2022-10-30T03:25:11;6.43;;;3.60;;
71814;SDS011;59659;41.520;23.794;2022-10-30T03:26:23;5.15;;;3.00;;
71814;SDS011;59659;41.520;23.794;2022-10-30T03:27:34;9.27;;;3.45;;
71814;SDS011;59659;41.520;23.794;2022-10-30T03:28:46;7.50;;;3.20;;
71814;SDS011;59659;41.520;23.794;2022-10-30T03:29:57;5.43;;;3.00;;
71814;SDS011;59659;41.520;23.794;2022-10-30T03:31:10;6.70;;;2.70;;
71814;SDS011;59659;41.520;23.794;2022-10-30T03:32:22;7.05;;;3.00;;
71814;SDS011;59659;41.520;23.794;2022-10-30T03:33:36;6.60;;;3.17;;
71814;SDS011;59659;41.520;23.794;2022-10-30T03:34:47;6.20;;;2.58;;
71814;SDS011;59659;41.520;23.794;2022-10-30T03:35:59;5.57;;;2.33;;
71814;SDS011;59659;41.520;23.794;2022-10-30T03:37:10;5.05;;;2.65;;
71814;SDS011;59659;41.520;23.794;2022-10-30T03:38:22;5.63;;;3.03;;
71814;SDS011;59659;41.520;23.794;2022-10-30T03:39:34;4.80;;;2.10;;
71814;SDS011;59659;41.520;23.794;2022-10-30T03:40:45;3.08;;;2.72;;
71814;SDS011;59659;41.520;23.794;2022-10-30T03:41:57;4.68;;;3.38;;
71814;SDS011;59659;41.520;23.794;2022-10-30T03:43:08;3.28;;;2.47;;
71814;SDS011;59659;41.520;23.794;2022-10-30T03:44:21;4.72;;;2.60;;
71814;SDS011;59659;41.520;23.794;2022-10-30T03:45:33;6.63;;;3.08;;
71814;SDS011;59659;41.520;23.794;2022-10-30T03:46:44;6.78;;;3.40;;
71814;SDS011;59659;41.520;23.794;2022-10-30T03:47:56;7.15;;;3.50;;
71814;SDS011;59659;41.520;23.794;2022-10-30T03:49:07;3.67;;;2.75;;
71814;SDS011;59659;41.520;23.794;2022-10-30T03:50:19;4.40;;;2.30;;
71814;SDS011;59659;41.520;23.794;2022-10-30T03:51:30;4.68;;;2.50;;
71814;SDS011;59659;41.520;23.794;2022-10-30T03:52:44;4.15;;;2.88;;
71814;SDS011;59659;41.520;23.794;2022-10-30T03:53:56;4.88;;;2.97;;
71814;SDS011;59659;41.520;23.794;2022-10-30T03:55:07;5.40;;;2.78;;
71814;SDS011;59659;41.520;23.794;2022-10-30T03:56:19;6.82;;;3.10;;
71814;SDS011;59659;41.520;23.794;2022-10-30T03:57:30;6.82;;;3.45;;
71814;SDS011;59659;41.520;23.794;2022-10-30T03:58:42;8.48;;;3.08;;
71814;SDS011;59659;41.520;23.794;2022-10-30T03:59:53;7.30;;;4.18;;
71814;SDS011;59659;41.520;23.794;2022-10-30T04:01:05;10.65;;;5.22;;
71814;SDS011;59659;41.520;23.794;2022-10-30T04:02:17;11.93;;;5.57;;
71814;SDS011;59659;41.520;23.794;2022-10-30T04:03:29;10.05;;;4.72;;
71814;SDS011;59659;41.520;23.794;2022-10-30T04:04:41;6.25;;;3.47;;
71814;SDS011;59659;41.520;23.794;2022-10-30T04:05:52;6.13;;;3.35;;
71814;SDS011;59659;41.520;23.794;2022-10-30T04:07:05;6.63;;;3.08;;
71814;SDS011;59659;41.520;23.794;2022-10-30T04:08:16;7.13;;;3.47;;
71814;SDS011;59659;41.520;23.794;2022-10-30T04:09:28;5.80;;;3.08;;
71814;SDS011;59659;41.520;23.794;2022-10-30T04:10:46;8.68;;;3.28;;
71814;SDS011;59659;41.520;23.794;2022-10-30T04:11:59;7.88;;;4.13;;
71814;SDS011;59659;41.520;23.794;2022-10-30T04:13:11;8.27;;;3.97;;
71814;SDS011;59659;41.520;23.794;2022-10-30T04:14:22;7.65;;;4.20;;
71814;SDS011;59659;41.520;23.794;2022-10-30T04:15:34;7.38;;;3.85;;
71814;SDS011;59659;41.520;23.794;2022-10-30T04:16:46;7.80;;;3.55;;
71814;SDS011;59659;41.520;23.794;2022-10-30T04:17:58;5.53;;;2.80;;
71814;SDS011;59659;41.520;23.794;2022-10-30T04:19:11;6.30;;;3.22;;
71814;SDS011;59659;41.520;23.794;2022-10-30T04:20:22;7.03;;;3.53;;
71814;SDS011;59659;41.520;23.794;2022-10-30T04:21:34;7.50;;;3.75;;
71814;SDS011;59659;41.520;23.794;2022-10-30T04:22:46;9.32;;;3.35;;
71814;SDS011;59659;41.520;23.794;2022-10-30T04:23:57;9.32;;;4.55;;
71814;SDS011;59659;41.520;23.794;2022-10-30T04:25:09;9.73;;;3.70;;
71814;SDS011;59659;41.520;23.794;2022-10-30T04:26:20;5.90;;;3.55;;
71814;SDS011;59659;41.520;23.794;2022-10-30T04:27:37;8.85;;;3.67;;
71814;SDS011;59659;41.520;23.794;2022-10-30T04:28:49;6.45;;;3.58;;
71814;SDS011;59659;41.520;23.794;2022-10-30T04:30:00;9.05;;;3.88;;
71814;SDS011;59659;41.520;23.794;2022-10-30T04:31:12;8.10;;;3.80;;
71814;SDS011;59659;41.520;23.794;2022-10-30T04:32:23;6.20;;;3.35;;
71814;SDS011;59659;41.520;23.794;2022-10-30T04:33:34;6.93;;;2.85;;
71814;SDS011;59659;41.520;23.794;2022-10-30T04:34:46;4.70;;;2.42;;
71814;SDS011;59659;41.520;23.794;2022-10-30T04:35:57;8.00;;;3.05;;
71814;SDS011;59659;41.520;23.794;2022-10-30T04:37:09;4.93;;;2.92;;
71814;SDS011;59659;41.520;23.794;2022-10-30T04:38:20;5.55;;;2.67;;
71814;SDS011;59659;41.520;23.794;2022-10-30T04:39:32;5.55;;;3.15;;
71814;SDS011;59659;41.520;23.794;2022-10-30T04:40:44;5.60;;;2.92;;
71814;SDS011;59659;41.520;23.794;2022-10-30T04:41:55;4.53;;;2.40;;
71814;SDS011;59659;41.520;23.794;2022-10-30T04:43:07;4.18;;;2.92;;
71814;SDS011;59659;41.520;23.794;2022-10-30T04:44:19;8.27;;;3.47;;
71814;SDS011;59659;41.520;23.794;2022-10-30T04:45:30;5.68;;;3.13;;
71814;SDS011;59659;41.520;23.794;2022-10-30T04:46:42;5.43;;;3.03;;
71814;SDS011;59659;41.520;23.794;2022-10-30T04:47:58;8.02;;;3.47;;
71814;SDS011;59659;41.520;23.794;2022-10-30T04:49:11;19.23;;;7.97;;
71814;SDS011;59659;41.520;23.794;2022-10-30T04:50:22;26.90;;;9.98;;
71814;SDS011;59659;41.520;23.794;2022-10-30T04:51:34;12.05;;;5.00;;
71814;SDS011;59659;41.520;23.794;2022-10-30T04:52:45;9.10;;;3.20;;
71814;SDS011;59659;41.520;23.794;2022-10-30T04:53:57;72.97;;;21.05;;
71814;SDS011;59659;41.520;23.794;2022-10-30T04:55:09;29.55;;;9.13;;
71814;SDS011;59659;41.520;23.794;2022-10-30T04:56:21;33.88;;;11.48;;
71814;SDS011;59659;41.520;23.794;2022-10-30T04:57:33;28.17;;;10.48;;
71814;SDS011;59659;41.520;23.794;2022-10-30T04:58:45;30.10;;;11.98;;
71814;SDS011;59659;41.520;23.794;2022-10-30T04:59:57;35.55;;;13.65;;
71814;SDS011;59659;41.520;23.794;2022-10-30T05:01:08;29.88;;;12.10;;
71814;SDS011;59659;41.520;23.794;2022-10-30T05:02:20;18.00;;;9.48;;
71814;SDS011;59659;41.520;23.794;2022-10-30T05:03:32;26.60;;;10.30;;
71814;SDS011;59659;41.520;23.794;2022-10-30T05:04:44;37.75;;;14.35;;
71814;SDS011;59659;41.520;23.794;2022-10-30T05:06:02;23.63;;;11.38;;
71814;SDS011;59659;41.520;23.794;2022-10-30T05:07:14;32.35;;;12.98;;
71814;SDS011;59659;41.520;23.794;2022-10-30T05:08:26;24.33;;;8.52;;
71814;SDS011;59659;41.520;23.794;2022-10-30T05:09:37;21.85;;;9.60;;
71814;SDS011;59659;41.520;23.794;2022-10-30T05:10:49;21.98;;;10.13;;
71814;SDS011;59659;41.520;23.794;2022-10-30T05:12:00;23.23;;;9.57;;
71814;SDS011;59659;41.520;23.794;2022-10-30T05:13:12;20.33;;;8.00;;
71814;SDS011;59659;41.520;23.794;2022-10-30T05:14:23;16.50;;;6.53;;
71814;SDS011;59659;41.520;23.794;2022-10-30T05:15:35;15.63;;;8.10;;
71814;SDS011;59659;41.520;23.794;2022-10-30T05:16:46;16.73;;;7.95;;
71814;SDS011;59659;41.520;23.794;2022-10-30T05:17:58;21.48;;;8.77;;
71814;SDS011;59659;41.520;23.794;2022-10-30T05:19:09;19.02;;;8.13;;
71814;SDS011;59659;41.520;23.794;2022-10-30T05:20:21;13.32;;;7.68;;
71814;SDS011;59659;41.520;23.794;2022-10-30T05:21:32;20.95;;;8.50;;
71814;SDS011;59659;41.520;23.794;2022-10-30T05:22:44;23.83;;;9.70;;
71814;SDS011;59659;41.520;23.794;2022-10-30T05:23:55;17.55;;;9.40;;
71814;SDS011;59659;41.520;23.794;2022-10-30T05:25:07;20.73;;;9.63;;
71814;SDS011;59659;41.520;23.794;2022-10-30T05:26:18;21.00;;;7.93;;
71814;SDS011;59659;41.520;23.794;2022-10-30T05:27:30;20.08;;;7.90;;
71814;SDS011;59659;41.520;23.794;2022-10-30T05:28:41;16.00;;;7.35;;
71814;SDS011;59659;41.520;23.794;2022-10-30T05:29:52;10.57;;;6.22;;
71814;SDS011;59659;41.520;23.794;2022-10-30T05:31:04;13.77;;;6.15;;
71814;SDS011;59659;41.520;23.794;2022-10-30T05:32:15;14.77;;;6.68;;
71814;SDS011;59659;41.520;23.794;2022-10-30T05:33:27;9.80;;;6.28;;
71814;SDS011;59659;41.520;23.794;2022-10-30T05:34:38;13.60;;;6.22;;
71814;SDS011;59659;41.520;23.794;2022-10-30T05:35:50;15.50;;;6.30;;
71814;SDS011;59659;41.520;23.794;2022-10-30T05:37:01;12.70;;;6.45;;
71814;SDS011;59659;41.520;23.794;2022-10-30T05:38:13;13.98;;;6.95;;
71814;SDS011;59659;41.520;23.794;2022-10-30T05:39:24;13.90;;;6.20;;
71814;SDS011;59659;41.520;23.794;2022-10-30T05:40:36;15.18;;;7.47;;
71814;SDS011;59659;41.520;23.794;2022-10-30T05:41:47;21.00;;;7.85;;
71814;SDS011;59659;41.520;23.794;2022-10-30T05:42:59;18.35;;;8.45;;
71814;SDS011;59659;41.520;23.794;2022-10-30T05:44:11;13.75;;;6.55;;
71814;SDS011;59659;41.520;23.794;2022-10-30T05:45:22;22.85;;;9.10;;
71814;SDS011;59659;41.520;23.794;2022-10-30T05:46:34;23.30;;;9.75;;
71814;SDS011;59659;41.520;23.794;2022-10-30T05:47:58;18.38;;;8.65;;
71814;SDS011;59659;41.520;23.794;2022-10-30T05:49:11;17.73;;;8.52;;
71814;SDS011;59659;41.520;23.794;2022-10-30T05:50:22;18.00;;;6.97;;
71814;SDS011;59659;41.520;23.794;2022-10-30T05:51:34;16.73;;;7.25;;
71814;SDS011;59659;41.520;23.794;2022-10-30T05:52:57;24.67;;;9.40;;
71814;SDS011;59659;41.520;23.794;2022-10-30T05:54:09;19.90;;;10.55;;
71814;SDS011;59659;41.520;23.794;2022-10-30T05:55:20;17.73;;;8.07;;
71814;SDS011;59659;41.520;23.794;2022-10-30T05:56:34;12.25;;;6.72;;
71814;SDS011;59659;41.520;23.794;2022-10-30T05:57:45;19.80;;;7.88;;
71814;SDS011;59659;41.520;23.794;2022-10-30T05:58:58;12.75;;;6.28;;
71814;SDS011;59659;41.520;23.794;2022-10-30T06:00:09;16.30;;;6.65;;
71814;SDS011;59659;41.520;23.794;2022-10-30T06:01:21;11.65;;;5.55;;
71814;SDS011;59659;41.520;23.794;2022-10-30T06:02:33;9.52;;;5.03;;
71814;SDS011;59659;41.520;23.794;2022-10-30T06:03:44;14.18;;;5.50;;
71814;SDS011;59659;41.520;23.794;2022-10-30T06:04:56;8.73;;;4.35;;
71814;SDS011;59659;41.520;23.794;2022-10-30T06:06:07;10.50;;;5.68;;
71814;SDS011;59659;41.520;23.794;2022-10-30T06:07:19;22.80;;;9.00;;
71814;SDS011;59659;41.520;23.794;2022-10-30T06:08:30;26.25;;;9.75;;
71814;SDS011;59659;41.520;23.794;2022-10-30T06:09:42;21.30;;;11.32;;
71814;SDS011;59659;41.520;23.794;2022-10-30T06:10:54;23.17;;;9.52;;
71814;SDS011;59659;41.520;23.794;2022-10-30T06:12:06;28.83;;;9.02;;
71814;SDS011;59659;41.520;23.794;2022-10-30T06:13:17;21.55;;;7.32;;
71814;SDS011;59659;41.520;23.794;2022-10-30T06:14:29;15.75;;;7.53;;
71814;SDS011;59659;41.520;23.794;2022-10-30T06:15:40;20.60;;;7.68;;
71814;SDS011;59659;41.520;23.794;2022-10-30T06:16:52;15.55;;;6.05;;
71814;SDS011;59659;41.520;23.794;2022-10-30T06:18:04;15.20;;;6.97;;
71814;SDS011;59659;41.520;23.794;2022-10-30T06:19:16;16.58;;;8.45;;
71814;SDS011;59659;41.520;23.794;2022-10-30T06:20:31;17.55;;;8.68;;
71814;SDS011;59659;41.520;23.794;2022-10-30T06:21:43;23.10;;;9.57;;
71814;SDS011;59659;41.520;23.794;2022-10-30T06:22:55;22.55;;;10.32;;
71814;SDS011;59659;41.520;23.794;2022-10-30T06:24:07;18.67;;;7.63;;
71814;SDS011;59659;41.520;23.794;2022-10-30T06:25:18;13.88;;;7.60;;
71814;SDS011;59659;41.520;23.794;2022-10-30T06:26:30;23.67;;;8.68;;
71814;SDS011;59659;41.520;23.794;2022-10-30T06:27:44;26.60;;;14.20;;
71814;SDS011;59659;41.520;23.794;2022-10-30T06:28:56;21.30;;;9.43;;
71814;SDS011;59659;41.520;23.794;2022-10-30T06:30:07;25.45;;;10.98;;
71814;SDS011;59659;41.520;23.794;2022-10-30T06:31:19;25.90;;;10.65;;
71814;SDS011;59659;41.520;23.794;2022-10-30T06:32:30;49.80;;;17.02;;
71814;SDS011;59659;41.520;23.794;2022-10-30T06:33:42;22.05;;;10.85;;
71814;SDS011;59659;41.520;23.794;2022-10-30T06:34:53;14.73;;;6.32;;
71814;SDS011;59659;41.520;23.794;2022-10-30T06:36:05;17.30;;;7.50;;
71814;SDS011;59659;41.520;23.794;2022-10-30T06:37:18;13.55;;;6.38;;
71814;SDS011;59659;41.520;23.794;2022-10-30T06:38:30;12.90;;;5.85;;
71814;SDS011;59659;41.520;23.794;2022-10-30T06:39:41;13.30;;;5.72;;
71814;SDS011;59659;41.520;23.794;2022-10-30T06:40:53;11.95;;;5.90;;
71814;SDS011;59659;41.520;23.794;2022-10-30T06:42:05;11.82;;;6.38;;
71814;SDS011;59659;41.520;23.794;2022-10-30T06:43:16;15.23;;;6.82;;
71814;SDS011;59659;41.520;23.794;2022-10-30T06:44:28;13.13;;;6.18;;
71814;SDS011;59659;41.520;23.794;2022-10-30T06:45:40;9.55;;;6.03;;
71814;SDS011;59659;41.520;23.794;2022-10-30T06:46:52;12.43;;;6.60;;
71814;SDS011;59659;41.520;23.794;2022-10-30T06:48:03;13.98;;;6.00;;
71814;SDS011;59659;41.520;23.794;2022-10-30T06:49:15;16.80;;;5.50;;
71814;SDS011;59659;41.520;23.794;2022-10-30T06:50:28;10.15;;;5.78;;
71814;SDS011;59659;41.520;23.794;2022-10-30T06:51:40;12.05;;;6.28;;
71814;SDS011;59659;41.520;23.794;2022-10-30T06:52:52;22.58;;;9.60;;
71814;SDS011;59659;41.520;23.794;2022-10-30T06:54:05;21.77;;;9.25;;
71814;SDS011;59659;41.520;23.794;2022-10-30T06:55:18;33.22;;;13.73;;
71814;SDS011;59659;41.520;23.794;2022-10-30T06:56:30;25.38;;;8.43;;
71814;SDS011;59659;41.520;23.794;2022-10-30T06:57:41;15.88;;;7.80;;
71814;SDS011;59659;41.520;23.794;2022-10-30T06:58:53;19.83;;;7.38;;
71814;SDS011;59659;41.520;23.794;2022-10-30T07:00:05;19.50;;;8.48;;
71814;SDS011;59659;41.520;23.794;2022-10-30T07:01:17;20.20;;;9.13;;
71814;SDS011;59659;41.520;23.794;2022-10-30T07:02:29;16.00;;;8.20;;
71814;SDS011;59659;41.520;23.794;2022-10-30T07:03:41;16.15;;;7.95;;
71814;SDS011;59659;41.520;23.794;2022-10-30T07:04:52;28.52;;;10.02;;
71814;SDS011;59659;41.520;23.794;2022-10-30T07:06:04;21.83;;;8.73;;
71814;SDS011;59659;41.520;23.794;2022-10-30T07:07:15;19.23;;;8.05;;
71814;SDS011;59659;41.520;23.794;2022-10-30T07:08:27;26.45;;;10.70;;
71814;SDS011;59659;41.520;23.794;2022-10-30T07:09:39;41.85;;;12.18;;
71814;SDS011;59659;41.520;23.794;2022-10-30T07:10:51;22.65;;;9.82;;
71814;SDS011;59659;41.520;23.794;2022-10-30T07:12:03;24.02;;;9.20;;
71814;SDS011;59659;41.520;23.794;2022-10-30T07:13:17;23.05;;;9.45;;
71814;SDS011;59659;41.520;23.794;2022-10-30T07:14:29;19.17;;;8.25;;
71814;SDS011;59659;41.520;23.794;2022-10-30T07:15:41;23.83;;;10.48;;
71814;SDS011;59659;41.520;23.794;2022-10-30T07:16:55;34.38;;;12.18;;
71814;SDS011;59659;41.520;23.794;2022-10-30T07:18:07;36.22;;;12.95;;
71814;SDS011;59659;41.520;23.794;2022-10-30T07:19:19;31.80;;;10.93;;
71814;SDS011;59659;41.520;23.794;2022-10-30T07:20:32;29.48;;;11.43;;
71814;SDS011;59659;41.520;23.794;2022-10-30T07:21:43;24.30;;;10.43;;
71814;SDS011;59659;41.520;23.794;2022-10-30T07:22:55;19.90;;;8.65;;
71814;SDS011;59659;41.520;23.794;2022-10-30T07:24:06;21.98;;;7.95;;
71814;SDS011;59659;41.520;23.794;2022-10-30T07:25:18;18.40;;;6.95;;
71814;SDS011;59659;41.520;23.794;2022-10-30T07:26:29;35.63;;;9.35;;
71814;SDS011;59659;41.520;23.794;2022-10-30T07:27:45;21.67;;;6.75;;
71814;SDS011;59659;41.520;23.794;2022-10-30T07:28:57;9.30;;;4.93;;
71814;SDS011;59659;41.520;23.794;2022-10-30T07:30:10;9.43;;;4.93;;
71814;SDS011;59659;41.520;23.794;2022-10-30T07:31:21;16.38;;;5.50;;
71814;SDS011;59659;41.520;23.794;2022-10-30T07:32:56;7.10;;;3.95;;
71814;SDS011;59659;41.520;23.794;2022-10-30T07:34:08;9.55;;;4.70;;